sensor_id;sensor_type;location;lat;lon;timestamp;pressure;altitude;pressure_sealevel;temperature;humidity
38612;BME280;24368;52.156;20.788;2023-03-23T00:04:58;99741.00;;;8.74;100.00
38612;BME280;24368;52.156;20.788;2023-03-23T00:10:02;99738.02;;;8.75;100.00
38612;BME280;24368;52.156;20.788;2023-03-23T00:15:06;99736.18;;;8.81;100.00
38612;BME280;24368;52.156;20.788;2023-03-23T00:20:09;99738.14;;;8.79;100.00
38612;BME280;24368;52.156;20.788;2023-03-23T00:25:13;99737.91;;;8.75;100.00
38612;BME280;24368;52.156;20.788;2023-03-23T00:30:15;99735.98;;;8.79;100.00
38612;BME280;24368;52.156;20.788;2023-03-23T00:35:17;99733.08;;;8.89;100.00
38612;BME280;24368;52.156;20.788;2023-03-23T00:40:19;99723.42;;;8.99;100.00
38612;BME280;24368;52.156;20.788;2023-03-23T00:45:21;99718.38;;;9.09;100.00
38612;BME280;24368;52.156;20.788;2023-03-23T00:50:25;99712.19;;;9.21;100.00
38612;BME280;24368;52.156;20.788;2023-03-23T00:55:27;99708.07;;;9.33;100.00
38612;BME280;24368;52.156;20.788;2023-03-23T01:00:29;99703.70;;;9.48;100.00
38612;BME280;24368;52.156;20.788;2023-03-23T01:05:35;99703.33;;;9.58;100.00
38612;BME280;24368;52.156;20.788;2023-03-23T01:10:38;99698.34;;;9.65;100.00
38612;BME280;24368;52.156;20.788;2023-03-23T01:15:40;99708.02;;;9.70;100.00
38612;BME280;24368;52.156;20.788;2023-03-23T01:20:43;99709.13;;;9.78;100.00
38612;BME280;24368;52.156;20.788;2023-03-23T01:25:44;99699.93;;;9.86;100.00
38612;BME280;24368;52.156;20.788;2023-03-23T01:30:46;99699.14;;;9.92;100.00
38612;BME280;24368;52.156;20.788;2023-03-23T01:35:48;99702.20;;;9.98;100.00
38612;BME280;24368;52.156;20.788;2023-03-23T01:40:50;99706.66;;;10.07;100.00
38612;BME280;24368;52.156;20.788;2023-03-23T01:45:52;99700.30;;;10.16;100.00
38612;BME280;24368;52.156;20.788;2023-03-23T01:51:01;99696.28;;;10.19;100.00
38612;BME280;24368;52.156;20.788;2023-03-23T01:56:06;99695.79;;;10.21;100.00
38612;BME280;24368;52.156;20.788;2023-03-23T02:01:15;99688.73;;;10.12;100.00
38612;BME280;24368;52.156;20.788;2023-03-23T02:06:17;99682.27;;;10.12;100.00
38612;BME280;24368;52.156;20.788;2023-03-23T02:11:20;99681.11;;;10.09;100.00
38612;BME280;24368;52.156;20.788;2023-03-23T02:16:31;99672.95;;;10.10;100.00
38612;BME280;24368;52.156;20.788;2023-03-23T02:38:01;99662.72;;;9.94;100.00
38612;BME280;24368;52.156;20.788;2023-03-23T02:43:07;99671.95;;;9.94;100.00
38612;BME280;24368;52.156;20.788;2023-03-23T02:48:13;99672.70;;;9.92;100.00
38612;BME280;24368;52.156;20.788;2023-03-23T02:53:21;99682.35;;;9.88;100.00
38612;BME280;24368;52.156;20.788;2023-03-23T02:58:24;99681.59;;;9.82;100.00
38612;BME280;24368;52.156;20.788;2023-03-23T03:03:28;99673.98;;;9.84;100.00
38612;BME280;24368;52.156;20.788;2023-03-23T03:14:11;99672.02;;;9.82;100.00
38612;BME280;24368;52.156;20.788;2023-03-23T03:19:29;99667.67;;;9.77;100.00
38612;BME280;24368;52.156;20.788;2023-03-23T03:24:33;99669.04;;;9.63;100.00
38612;BME280;24368;52.156;20.788;2023-03-23T03:29:40;99676.80;;;9.56;100.00
38612;BME280;24368;52.156;20.788;2023-03-23T03:34:45;99685.44;;;9.54;100.00
38612;BME280;24368;52.156;20.788;2023-03-23T03:39:48;99687.83;;;9.56;100.00
38612;BME280;24368;52.156;20.788;2023-03-23T03:44:50;99685.61;;;9.49;100.00
38612;BME280;24368;52.156;20.788;2023-03-23T03:49:52;99687.77;;;9.42;100.00
38612;BME280;24368;52.156;20.788;2023-03-23T03:54:54;99677.48;;;9.35;100.00
38612;BME280;24368;52.156;20.788;2023-03-23T03:59:57;99663.27;;;9.28;100.00
38612;BME280;24368;52.156;20.788;2023-03-23T04:04:59;99657.13;;;9.26;100.00
38612;BME280;24368;52.156;20.788;2023-03-23T04:10:05;99657.89;;;9.29;100.00
38612;BME280;24368;52.156;20.788;2023-03-23T04:15:09;99662.37;;;9.30;100.00
38612;BME280;24368;52.156;20.788;2023-03-23T04:20:11;99662.13;;;9.24;100.00
38612;BME280;24368;52.156;20.788;2023-03-23T04:25:19;99663.84;;;9.18;100.00
38612;BME280;24368;52.156;20.788;2023-03-23T04:30:24;99662.29;;;9.18;100.00
38612;BME280;24368;52.156;20.788;2023-03-23T04:35:30;99655.38;;;9.21;100.00
38612;BME280;24368;52.156;20.788;2023-03-23T04:40:36;99654.38;;;9.18;100.00
38612;BME280;24368;52.156;20.788;2023-03-23T04:45:39;99652.33;;;9.14;100.00
38612;BME280;24368;52.156;20.788;2023-03-23T04:50:43;99651.92;;;9.13;100.00
38612;BME280;24368;52.156;20.788;2023-03-23T04:55:46;99649.04;;;9.13;100.00
38612;BME280;24368;52.156;20.788;2023-03-23T05:00:48;99652.08;;;9.13;100.00
38612;BME280;24368;52.156;20.788;2023-03-23T05:05:53;99649.63;;;9.13;100.00
38612;BME280;24368;52.156;20.788;2023-03-23T05:10:57;99643.26;;;9.13;100.00
38612;BME280;24368;52.156;20.788;2023-03-23T05:16:04;99642.16;;;9.19;100.00
38612;BME280;24368;52.156;20.788;2023-03-23T05:21:06;99638.39;;;9.24;100.00
38612;BME280;24368;52.156;20.788;2023-03-23T05:26:08;99641.30;;;9.29;100.00
38612;BME280;24368;52.156;20.788;2023-03-23T05:31:09;99642.60;;;9.36;100.00
38612;BME280;24368;52.156;20.788;2023-03-23T05:36:11;99648.11;;;9.40;100.00
38612;BME280;24368;52.156;20.788;2023-03-23T05:41:15;99649.97;;;9.49;100.00
38612;BME280;24368;52.156;20.788;2023-03-23T05:46:17;99650.37;;;9.56;100.00
38612;BME280;24368;52.156;20.788;2023-03-23T05:51:19;99645.05;;;9.62;100.00
38612;BME280;24368;52.156;20.788;2023-03-23T05:56:21;99644.59;;;9.66;100.00
38612;BME280;24368;52.156;20.788;2023-03-23T06:01:24;99645.98;;;9.76;100.00
38612;BME280;24368;52.156;20.788;2023-03-23T06:06:26;99652.29;;;9.89;100.00
38612;BME280;24368;52.156;20.788;2023-03-23T06:11:28;99652.16;;;9.89;100.00
38612;BME280;24368;52.156;20.788;2023-03-23T06:16:30;99648.73;;;9.94;100.00
38612;BME280;24368;52.156;20.788;2023-03-23T06:21:32;99652.27;;;10.06;100.00
38612;BME280;24368;52.156;20.788;2023-03-23T06:26:38;99653.34;;;10.19;100.00
38612;BME280;24368;52.156;20.788;2023-03-23T06:31:44;99651.73;;;10.25;100.00
38612;BME280;24368;52.156;20.788;2023-03-23T06:36:47;99654.73;;;10.28;100.00
38612;BME280;24368;52.156;20.788;2023-03-23T06:41:49;99658.27;;;10.35;100.00
38612;BME280;24368;52.156;20.788;2023-03-23T06:46:51;99657.98;;;10.43;100.00
38612;BME280;24368;52.156;20.788;2023-03-23T06:51:52;99652.99;;;10.55;100.00
38612;BME280;24368;52.156;20.788;2023-03-23T06:56:54;99656.11;;;10.67;100.00
38612;BME280;24368;52.156;20.788;2023-03-23T07:01:56;99663.80;;;10.77;100.00
38612;BME280;24368;52.156;20.788;2023-03-23T07:06:58;99669.27;;;10.89;100.00
38612;BME280;24368;52.156;20.788;2023-03-23T07:12:00;99666.00;;;11.00;100.00
38612;BME280;24368;52.156;20.788;2023-03-23T07:17:03;99661.73;;;11.14;100.00
38612;BME280;24368;52.156;20.788;2023-03-23T07:22:06;99666.92;;;11.24;99.85
38612;BME280;24368;52.156;20.788;2023-03-23T07:27:08;99668.42;;;11.27;99.96
38612;BME280;24368;52.156;20.788;2023-03-23T07:32:11;99673.29;;;11.33;99.59
38612;BME280;24368;52.156;20.788;2023-03-23T07:37:13;99681.61;;;11.40;99.28
38612;BME280;24368;52.156;20.788;2023-03-23T07:42:15;99682.17;;;11.54;98.45
38612;BME280;24368;52.156;20.788;2023-03-23T07:47:17;99680.96;;;11.69;97.47
38612;BME280;24368;52.156;20.788;2023-03-23T07:52:19;99675.25;;;11.80;97.24
38612;BME280;24368;52.156;20.788;2023-03-23T07:57:22;99671.45;;;11.96;95.97
38612;BME280;24368;52.156;20.788;2023-03-23T08:02:24;99669.66;;;12.04;94.61
38612;BME280;24368;52.156;20.788;2023-03-23T08:07:26;99668.05;;;12.19;93.09
38612;BME280;24368;52.156;20.788;2023-03-23T08:12:28;99669.41;;;12.33;91.52
38612;BME280;24368;52.156;20.788;2023-03-23T08:17:29;99660.52;;;12.51;90.22
38612;BME280;24368;52.156;20.788;2023-03-23T08:22:31;99660.09;;;12.67;89.39
38612;BME280;24368;52.156;20.788;2023-03-23T08:27:33;99640.73;;;12.76;89.07
38612;BME280;24368;52.156;20.788;2023-03-23T08:32:35;99627.21;;;12.96;88.28
38612;BME280;24368;52.156;20.788;2023-03-23T08:37:38;99625.79;;;13.14;85.79
38612;BME280;24368;52.156;20.788;2023-03-23T08:42:42;99626.30;;;13.22;84.45
38612;BME280;24368;52.156;20.788;2023-03-23T08:47:44;99629.67;;;13.32;82.98
38612;BME280;24368;52.156;20.788;2023-03-23T08:52:48;99623.45;;;13.43;82.17
38612;BME280;24368;52.156;20.788;2023-03-23T08:57:52;99625.51;;;13.63;81.44
38612;BME280;24368;52.156;20.788;2023-03-23T09:02:54;99628.87;;;13.75;80.43
38612;BME280;24368;52.156;20.788;2023-03-23T09:07:58;99627.37;;;13.78;80.08
38612;BME280;24368;52.156;20.788;2023-03-23T09:13:00;99626.48;;;13.69;79.94
38612;BME280;24368;52.156;20.788;2023-03-23T09:18:02;99632.73;;;13.74;78.69
38612;BME280;24368;52.156;20.788;2023-03-23T09:23:04;99632.77;;;13.84;78.91
38612;BME280;24368;52.156;20.788;2023-03-23T09:28:07;99628.80;;;14.01;77.16
38612;BME280;24368;52.156;20.788;2023-03-23T09:33:08;99621.77;;;14.26;75.50
38612;BME280;24368;52.156;20.788;2023-03-23T09:38:10;99614.95;;;14.56;72.56
38612;BME280;24368;52.156;20.788;2023-03-23T09:49:05;99601.66;;;14.91;69.70
38612;BME280;24368;52.156;20.788;2023-03-23T10:04:36;99590.05;;;15.24;68.88
38612;BME280;24368;52.156;20.788;2023-03-23T10:09:42;99590.53;;;15.42;66.59
38612;BME280;24368;52.156;20.788;2023-03-23T10:14:58;99587.55;;;15.54;66.87
38612;BME280;24368;52.156;20.788;2023-03-23T10:30:24;99575.34;;;16.06;64.51
38612;BME280;24368;52.156;20.788;2023-03-23T10:40:59;99583.92;;;16.57;61.11
38612;BME280;24368;52.156;20.788;2023-03-23T10:46:11;99582.48;;;16.89;59.35
38612;BME280;24368;52.156;20.788;2023-03-23T10:51:21;99569.74;;;17.16;57.65
38612;BME280;24368;52.156;20.788;2023-03-23T10:56:27;99562.73;;;17.24;56.39
38612;BME280;24368;52.156;20.788;2023-03-23T11:01:33;99566.60;;;17.00;56.61
38612;BME280;24368;52.156;20.788;2023-03-23T11:06:36;99567.52;;;16.83;55.86
38612;BME280;24368;52.156;20.788;2023-03-23T11:11:53;99561.66;;;16.82;55.43
38612;BME280;24368;52.156;20.788;2023-03-23T11:16:58;99551.20;;;17.06;54.58
38612;BME280;24368;52.156;20.788;2023-03-23T11:27:07;99539.54;;;18.13;53.45
38612;BME280;24368;52.156;20.788;2023-03-23T11:32:12;99526.30;;;18.27;52.77
38612;BME280;24368;52.156;20.788;2023-03-23T11:37:29;99518.27;;;19.00;52.62
38612;BME280;24368;52.156;20.788;2023-03-23T11:42:42;99510.73;;;18.88;50.11
38612;BME280;24368;52.156;20.788;2023-03-23T11:58:42;99479.13;;;21.66;42.66
38612;BME280;24368;52.156;20.788;2023-03-23T12:09:39;99489.73;;;21.95;40.83
38612;BME280;24368;52.156;20.788;2023-03-23T12:14:48;99486.09;;;20.93;43.13
38612;BME280;24368;52.156;20.788;2023-03-23T12:20:13;99476.66;;;20.53;44.62
38612;BME280;24368;52.156;20.788;2023-03-23T12:35:42;99447.23;;;20.09;45.99
38612;BME280;24368;52.156;20.788;2023-03-23T12:51:49;99458.58;;;19.30;47.80
38612;BME280;24368;52.156;20.788;2023-03-23T12:57:19;99453.95;;;18.74;49.12
38612;BME280;24368;52.156;20.788;2023-03-23T13:02:34;99449.71;;;18.62;50.47
38612;BME280;24368;52.156;20.788;2023-03-23T13:07:48;99455.70;;;18.86;49.32
38612;BME280;24368;52.156;20.788;2023-03-23T13:12:53;99445.13;;;18.22;50.03
38612;BME280;24368;52.156;20.788;2023-03-23T13:18:19;99446.60;;;17.96;51.36
38612;BME280;24368;52.156;20.788;2023-03-23T13:23:33;99445.53;;;17.74;51.59
38612;BME280;24368;52.156;20.788;2023-03-23T13:33:53;99444.65;;;17.70;50.54
38612;BME280;24368;52.156;20.788;2023-03-23T13:39:01;99459.51;;;17.71;50.56
38612;BME280;24368;52.156;20.788;2023-03-23T13:44:15;99464.92;;;17.72;51.22
38612;BME280;24368;52.156;20.788;2023-03-23T13:49:20;99471.20;;;17.76;51.57
38612;BME280;24368;52.156;20.788;2023-03-23T13:54:39;99464.81;;;17.61;52.68
38612;BME280;24368;52.156;20.788;2023-03-23T13:59:49;99465.27;;;17.52;52.37
38612;BME280;24368;52.156;20.788;2023-03-23T14:04:57;99481.52;;;17.29;53.64
38612;BME280;24368;52.156;20.788;2023-03-23T14:10:16;99489.86;;;17.03;54.93
38612;BME280;24368;52.156;20.788;2023-03-23T14:15:19;99496.95;;;16.82;55.16
38612;BME280;24368;52.156;20.788;2023-03-23T14:20:27;99496.09;;;16.73;55.78
38612;BME280;24368;52.156;20.788;2023-03-23T14:25:37;99501.15;;;16.62;56.21
38612;BME280;24368;52.156;20.788;2023-03-23T14:30:45;99512.37;;;16.52;56.95
38612;BME280;24368;52.156;20.788;2023-03-23T14:35:58;99516.61;;;16.30;59.08
38612;BME280;24368;52.156;20.788;2023-03-23T14:41:15;99523.27;;;16.09;60.30
38612;BME280;24368;52.156;20.788;2023-03-23T14:46:17;99520.66;;;15.99;60.15
38612;BME280;24368;52.156;20.788;2023-03-23T14:51:20;99524.75;;;15.90;60.90
38612;BME280;24368;52.156;20.788;2023-03-23T14:56:23;99526.52;;;15.85;61.54
38612;BME280;24368;52.156;20.788;2023-03-23T15:01:31;99531.48;;;15.84;61.82
38612;BME280;24368;52.156;20.788;2023-03-23T15:06:35;99534.09;;;15.72;63.42
38612;BME280;24368;52.156;20.788;2023-03-23T15:11:39;99531.64;;;15.65;64.33
38612;BME280;24368;52.156;20.788;2023-03-23T15:16:52;99530.55;;;15.55;65.55
38612;BME280;24368;52.156;20.788;2023-03-23T15:22:16;99525.42;;;15.52;66.59
38612;BME280;24368;52.156;20.788;2023-03-23T15:27:34;99529.86;;;15.47;66.69
38612;BME280;24368;52.156;20.788;2023-03-23T15:32:42;99529.53;;;15.45;67.55
38612;BME280;24368;52.156;20.788;2023-03-23T15:37:52;99535.38;;;15.41;67.94
38612;BME280;24368;52.156;20.788;2023-03-23T15:43:21;99538.10;;;15.28;69.02
38612;BME280;24368;52.156;20.788;2023-03-23T15:48:25;99542.64;;;15.23;69.89
38612;BME280;24368;52.156;20.788;2023-03-23T15:53:31;99547.27;;;15.16;69.80
38612;BME280;24368;52.156;20.788;2023-03-23T15:58:34;99554.87;;;15.10;70.80
38612;BME280;24368;52.156;20.788;2023-03-23T16:03:38;99557.60;;;15.04;70.52
38612;BME280;24368;52.156;20.788;2023-03-23T16:08:41;99565.88;;;15.03;70.87
38612;BME280;24368;52.156;20.788;2023-03-23T16:13:44;99571.59;;;14.92;71.87
38612;BME280;24368;52.156;20.788;2023-03-23T16:18:46;99580.30;;;14.77;73.52
38612;BME280;24368;52.156;20.788;2023-03-23T16:23:48;99584.68;;;14.64;75.01
38612;BME280;24368;52.156;20.788;2023-03-23T16:28:49;99582.83;;;14.51;77.50
38612;BME280;24368;52.156;20.788;2023-03-23T16:33:51;99579.95;;;14.35;78.61
38612;BME280;24368;52.156;20.788;2023-03-23T16:38:53;99583.04;;;14.25;79.77
38612;BME280;24368;52.156;20.788;2023-03-23T16:43:55;99589.45;;;14.21;80.29
38612;BME280;24368;52.156;20.788;2023-03-23T16:48:57;99594.52;;;14.09;81.24
38612;BME280;24368;52.156;20.788;2023-03-23T16:53:59;99594.20;;;14.03;81.22
38612;BME280;24368;52.156;20.788;2023-03-23T16:59:00;99597.13;;;14.01;81.05
38612;BME280;24368;52.156;20.788;2023-03-23T17:04:03;99595.30;;;13.95;81.94
38612;BME280;24368;52.156;20.788;2023-03-23T17:09:05;99605.93;;;13.91;82.36
38612;BME280;24368;52.156;20.788;2023-03-23T17:14:08;99610.67;;;13.81;83.36
38612;BME280;24368;52.156;20.788;2023-03-23T17:19:10;99602.95;;;13.73;83.92
38612;BME280;24368;52.156;20.788;2023-03-23T17:24:14;99610.12;;;13.65;84.23
38612;BME280;24368;52.156;20.788;2023-03-23T17:29:16;99612.11;;;13.64;85.07
38612;BME280;24368;52.156;20.788;2023-03-23T17:34:18;99612.30;;;13.52;85.84
38612;BME280;24368;52.156;20.788;2023-03-23T17:39:20;99605.42;;;13.61;84.99
38612;BME280;24368;52.156;20.788;2023-03-23T17:44:22;99621.69;;;13.57;85.56
38612;BME280;24368;52.156;20.788;2023-03-23T17:49:26;99633.27;;;13.56;85.46
38612;BME280;24368;52.156;20.788;2023-03-23T17:54:28;99645.86;;;13.61;84.25
38612;BME280;24368;52.156;20.788;2023-03-23T17:59:30;99657.73;;;13.56;84.40
38612;BME280;24368;52.156;20.788;2023-03-23T18:04:32;99667.17;;;13.60;83.80
38612;BME280;24368;52.156;20.788;2023-03-23T18:09:35;99666.77;;;13.60;83.47
38612;BME280;24368;52.156;20.788;2023-03-23T18:14:37;99668.20;;;13.56;83.69
38612;BME280;24368;52.156;20.788;2023-03-23T18:19:40;99660.38;;;13.53;83.67
38612;BME280;24368;52.156;20.788;2023-03-23T18:24:42;99652.27;;;13.62;81.96
38612;BME280;24368;52.156;20.788;2023-03-23T18:29:44;99658.05;;;13.73;80.80
38612;BME280;24368;52.156;20.788;2023-03-23T18:34:46;99662.70;;;13.75;79.95
38612;BME280;24368;52.156;20.788;2023-03-23T18:39:49;99656.13;;;13.81;78.50
38612;BME280;24368;52.156;20.788;2023-03-23T18:44:54;99660.23;;;13.88;76.51
38612;BME280;24368;52.156;20.788;2023-03-23T18:49:56;99654.80;;;13.94;75.10
38612;BME280;24368;52.156;20.788;2023-03-23T18:55:00;99658.05;;;13.88;74.56
38612;BME280;24368;52.156;20.788;2023-03-23T19:00:02;99657.07;;;13.92;73.31
38612;BME280;24368;52.156;20.788;2023-03-23T19:05:06;99650.74;;;13.99;72.14
38612;BME280;24368;52.156;20.788;2023-03-23T19:10:08;99650.80;;;14.01;71.34
38612;BME280;24368;52.156;20.788;2023-03-23T19:15:10;99652.46;;;13.99;71.12
38612;BME280;24368;52.156;20.788;2023-03-23T19:20:12;99667.29;;;13.96;70.78
38612;BME280;24368;52.156;20.788;2023-03-23T19:25:14;99671.45;;;13.96;70.67
38612;BME280;24368;52.156;20.788;2023-03-23T19:30:17;99673.08;;;13.94;70.41
38612;BME280;24368;52.156;20.788;2023-03-23T19:35:19;99669.26;;;13.93;70.51
38612;BME280;24368;52.156;20.788;2023-03-23T19:40:21;99671.63;;;13.89;71.38
38612;BME280;24368;52.156;20.788;2023-03-23T19:45:23;99672.00;;;13.83;73.26
38612;BME280;24368;52.156;20.788;2023-03-23T19:50:25;99664.77;;;13.73;74.03
38612;BME280;24368;52.156;20.788;2023-03-23T19:55:27;99658.16;;;13.66;75.35
38612;BME280;24368;52.156;20.788;2023-03-23T20:00:29;99640.50;;;13.59;77.36
38612;BME280;24368;52.156;20.788;2023-03-23T20:05:33;99637.30;;;13.53;79.51
38612;BME280;24368;52.156;20.788;2023-03-23T20:10:36;99643.77;;;13.38;82.62
38612;BME280;24368;52.156;20.788;2023-03-23T20:15:39;99657.58;;;13.34;85.08
38612;BME280;24368;52.156;20.788;2023-03-23T20:20:40;99658.52;;;13.28;87.38
38612;BME280;24368;52.156;20.788;2023-03-23T20:25:42;99659.10;;;13.30;87.98
38612;BME280;24368;52.156;20.788;2023-03-23T20:30:44;99659.88;;;13.22;89.05
38612;BME280;24368;52.156;20.788;2023-03-23T20:35:46;99654.19;;;13.18;90.01
38612;BME280;24368;52.156;20.788;2023-03-23T20:40:48;99644.42;;;13.13;90.67
38612;BME280;24368;52.156;20.788;2023-03-23T20:45:50;99649.67;;;13.09;91.26
38612;BME280;24368;52.156;20.788;2023-03-23T20:50:53;99645.31;;;13.11;91.07
38612;BME280;24368;52.156;20.788;2023-03-23T20:55:58;99638.38;;;13.09;90.69
38612;BME280;24368;52.156;20.788;2023-03-23T21:01:04;99630.77;;;13.06;90.93
38612;BME280;24368;52.156;20.788;2023-03-23T21:06:06;99633.70;;;12.97;91.99
38612;BME280;24368;52.156;20.788;2023-03-23T21:11:11;99648.42;;;12.98;91.93
38612;BME280;24368;52.156;20.788;2023-03-23T21:16:14;99648.66;;;13.01;92.07
38612;BME280;24368;52.156;20.788;2023-03-23T21:21:20;99644.91;;;12.94;92.71
38612;BME280;24368;52.156;20.788;2023-03-23T21:26:24;99650.77;;;12.85;94.06
38612;BME280;24368;52.156;20.788;2023-03-23T21:31:28;99645.61;;;12.81;94.68
38612;BME280;24368;52.156;20.788;2023-03-23T21:36:33;99645.05;;;12.83;93.97
38612;BME280;24368;52.156;20.788;2023-03-23T21:41:35;99646.90;;;12.82;94.00
38612;BME280;24368;52.156;20.788;2023-03-23T21:46:38;99651.09;;;12.75;94.04
38612;BME280;24368;52.156;20.788;2023-03-23T21:51:41;99648.94;;;12.69;94.38
38612;BME280;24368;52.156;20.788;2023-03-23T21:56:44;99651.80;;;12.55;95.42
38612;BME280;24368;52.156;20.788;2023-03-23T22:01:46;99661.36;;;12.47;95.26
38612;BME280;24368;52.156;20.788;2023-03-23T22:06:49;99661.00;;;12.50;94.46
38612;BME280;24368;52.156;20.788;2023-03-23T22:11:51;99665.20;;;12.50;93.14
38612;BME280;24368;52.156;20.788;2023-03-23T22:16:53;99675.46;;;12.52;91.49
38612;BME280;24368;52.156;20.788;2023-03-23T22:21:55;99670.88;;;12.50;90.61
38612;BME280;24368;52.156;20.788;2023-03-23T22:26:57;99670.83;;;12.43;90.38
38612;BME280;24368;52.156;20.788;2023-03-23T22:32:00;99675.64;;;12.38;90.23
38612;BME280;24368;52.156;20.788;2023-03-23T22:37:02;99679.41;;;12.33;90.22
38612;BME280;24368;52.156;20.788;2023-03-23T22:42:06;99680.52;;;12.37;89.03
38612;BME280;24368;52.156;20.788;2023-03-23T22:47:08;99680.67;;;12.36;88.53
38612;BME280;24368;52.156;20.788;2023-03-23T22:52:09;99687.08;;;12.28;88.61
38612;BME280;24368;52.156;20.788;2023-03-23T22:57:11;99689.33;;;12.35;87.63
38612;BME280;24368;52.156;20.788;2023-03-23T23:02:13;99686.46;;;12.42;86.59
38612;BME280;24368;52.156;20.788;2023-03-23T23:07:15;99687.85;;;12.42;86.46
38612;BME280;24368;52.156;20.788;2023-03-23T23:12:17;99687.36;;;12.37;86.76
38612;BME280;24368;52.156;20.788;2023-03-23T23:17:20;99692.73;;;12.27;87.34
38612;BME280;24368;52.156;20.788;2023-03-23T23:22:22;99688.80;;;12.21;87.84
38612;BME280;24368;52.156;20.788;2023-03-23T23:27:24;99697.50;;;12.14;88.27
38612;BME280;24368;52.156;20.788;2023-03-23T23:32:26;99695.98;;;12.01;89.08
38612;BME280;24368;52.156;20.788;2023-03-23T23:37:30;99697.55;;;11.89;89.91
38612;BME280;24368;52.156;20.788;2023-03-23T23:42:33;99702.95;;;11.82;90.42
38612;BME280;24368;52.156;20.788;2023-03-23T23:47:36;99702.45;;;11.71;91.21
38612;BME280;24368;52.156;20.788;2023-03-23T23:52:39;99703.05;;;11.75;91.43
38612;BME280;24368;52.156;20.788;2023-03-23T23:57:42;99706.02;;;11.76;91.47
